Time;durP1;ratioP1;P1;durP2;ratioP2;P2;SDS_P1;SDS_P2;PMS_P1;PMS_P2;Temp;Humidity;BMP_temperature;BMP_pressure;BME280_temperature;BME280_humidity;BME280_pressure;Samples;Min_cycle;Max_cycle;Signal;HPM_P1;HPM_P2
2021/06/01 00:01:33;;;;;;;2.83;2.63;;;;;;;;;;5117949;28;20481;-74
2021/06/01 00:03:59;;;;;;;4.10;3.80;;;;;;;;;;5117206;28;20529;-74
2021/06/01 00:06:26;;;;;;;6.07;3.07;;;;;;;;;;5117553;28;20442;-74
2021/06/01 00:08:53;;;;;;;3.37;3.07;;;;;;;;;;5117212;28;20529;-74
2021/06/01 00:11:20;;;;;;;3.40;3.10;;;;;;;;;;5117395;28;20436;-74
2021/06/01 00:13:48;;;;;;;4.17;3.20;;;;;;;;;;5117280;28;20443;-74
2021/06/01 00:16:15;;;;;;;2.73;2.53;;;;;;;;;;5117027;28;20529;-73
2021/06/01 00:18:42;;;;;;;4.10;3.27;;;;;;;;;;5116735;28;20957;-73
2021/06/01 00:21:09;;;;;;;3.80;3.40;;;;;;;;;;5117378;28;20470;-74
2021/06/01 00:23:37;;;;;;;3.63;3.30;;;;;;;;;;5116996;28;20513;-73
2021/06/01 00:26:04;;;;;;;4.00;3.30;;;;;;;;;;5116840;28;20439;-73
2021/06/01 00:28:31;;;;;;;3.73;2.37;;;;;;;;;;5116586;28;20617;-73
2021/06/01 00:30:59;;;;;;;2.90;2.60;;;;;;;;;;5116520;28;20526;-73
2021/06/01 00:33:25;;;;;;;4.10;2.87;;;;;;;;;;5116730;28;20443;-74
2021/06/01 00:35:52;;;;;;;3.90;3.00;;;;;;;;;;5117182;28;20495;-73
2021/06/01 00:38:19;;;;;;;5.50;3.40;;;;;;;;;;5117415;28;20473;-73
2021/06/01 00:40:46;;;;;;;3.90;2.70;;;;;;;;;;5116395;28;20478;-73
2021/06/01 00:43:13;;;;;;;3.47;3.17;;;;;;;;;;5116234;28;20500;-73
2021/06/01 00:45:40;;;;;;;2.60;2.40;;;;;;;;;;5116216;28;20498;-73
2021/06/01 00:48:08;;;;;;;3.27;2.70;;;;;;;;;;5116512;28;20445;-73
2021/06/01 00:50:35;;;;;;;3.57;3.13;;;;;;;;;;5116374;28;20521;-73
2021/06/01 00:53:02;;;;;;;3.87;2.73;;;;;;;;;;5115583;28;20478;-73
2021/06/01 00:55:29;;;;;;;3.23;2.93;;;;;;;;;;5116080;28;20453;-73
2021/06/01 00:57:56;;;;;;;3.20;2.90;;;;;;;;;;5116269;28;20439;-73
2021/06/01 01:00:41;;;;;;;3.67;2.83;;;;;;;;;;5116705;28;20456;-73
2021/06/01 01:03:09;;;;;;;3.23;2.93;;;;;;;;;;5116089;28;20922;-73
2021/06/01 01:05:37;;;;;;;3.10;2.90;;;;;;;;;;5115957;28;20469;-74
2021/06/01 01:08:18;;;;;;;4.80;3.07;;;;;;;;;;5116327;28;20449;-73
2021/06/01 01:10:45;;;;;;;9.40;3.70;;;;;;;;;;5116416;28;20757;-73
2021/06/01 01:13:12;;;;;;;3.63;3.10;;;;;;;;;;5116138;28;20474;-72
2021/06/01 01:15:39;;;;;;;4.67;2.90;;;;;;;;;;5116070;28;20450;-73
2021/06/01 01:18:11;;;;;;;4.73;3.03;;;;;;;;;;5115722;28;20987;-73
2021/06/01 01:20:40;;;;;;;5.03;2.67;;;;;;;;;;5115580;28;20458;-73
2021/06/01 01:23:11;;;;;;;6.83;2.90;;;;;;;;;;5116011;28;20518;-73
2021/06/01 01:25:38;;;;;;;4.87;3.17;;;;;;;;;;5116013;28;20454;-73
2021/06/01 01:28:09;;;;;;;4.90;3.73;;;;;;;;;;5115630;28;20561;-74
2021/06/01 01:30:41;;;;;;;6.33;3.03;;;;;;;;;;5115749;28;20423;-75
2021/06/01 01:33:20;;;;;;;4.30;2.70;;;;;;;;;;5115458;28;20427;-75
2021/06/01 01:35:48;;;;;;;3.23;2.93;;;;;;;;;;5115496;28;20934;-75
2021/06/01 01:38:14;;;;;;;4.10;3.30;;;;;;;;;;5115464;28;20499;-75
2021/06/01 01:40:43;;;;;;;4.73;3.10;;;;;;;;;;5115675;28;20529;-74
2021/06/01 01:43:14;;;;;;;4.37;3.30;;;;;;;;;;5115205;28;20970;-75
2021/06/01 01:45:44;;;;;;;4.73;3.00;;;;;;;;;;5116222;28;20430;-75
2021/06/01 01:51:11;;;;;;;7.00;3.40;;;;;;;;;;5115480;28;20904;-74
2021/06/01 01:53:38;;;;;;;3.73;3.10;;;;;;;;;;5115170;28;20527;-74
2021/06/01 01:56:06;;;;;;;2.83;2.63;;;;;;;;;;5115199;28;20446;-74
2021/06/01 01:58:33;;;;;;;4.33;3.07;;;;;;;;;;5115204;28;20584;-74
2021/06/01 02:01:00;;;;;;;3.73;3.43;;;;;;;;;;5114749;28;20623;-74
2021/06/01 02:03:27;;;;;;;6.63;3.23;;;;;;;;;;5115166;28;20499;-74
2021/06/01 02:05:54;;;;;;;3.37;2.87;;;;;;;;;;5115061;28;20435;-74
2021/06/01 02:08:22;;;;;;;5.50;3.37;;;;;;;;;;5114703;28;20506;-74
2021/06/01 02:10:49;;;;;;;5.03;3.60;;;;;;;;;;5114680;28;20478;-73
2021/06/01 02:13:16;;;;;;;4.10;3.70;;;;;;;;;;5114970;28;20526;-74
2021/06/01 02:15:42;;;;;;;7.13;3.30;;;;;;;;;;5114536;28;20445;-73
2021/06/01 02:18:09;;;;;;;3.50;3.20;;;;;;;;;;5114868;28;20443;-73
2021/06/01 02:20:36;;;;;;;4.83;3.77;;;;;;;;;;5114744;28;20517;-73
2021/06/01 02:25:55;;;;;;;3.87;3.50;;;;;;;;;;5114410;28;20398;-74
2021/06/01 02:28:24;;;;;;;5.00;3.60;;;;;;;;;;5114712;28;20437;-74
2021/06/01 02:30:53;;;;;;;4.93;3.27;;;;;;;;;;5115033;28;20528;-74
2021/06/01 02:33:21;;;;;;;5.00;3.47;;;;;;;;;;5114573;28;20860;-74
2021/06/01 02:35:48;;;;;;;5.60;3.70;;;;;;;;;;5114253;28;20441;-73
2021/06/01 02:38:15;;;;;;;4.80;4.00;;;;;;;;;;5114692;28;20510;-73
2021/06/01 02:40:43;;;;;;;4.63;3.90;;;;;;;;;;5114566;28;20439;-74
2021/06/01 02:43:12;;;;;;;3.47;3.20;;;;;;;;;;5114386;28;20439;-73
2021/06/01 02:45:40;;;;;;;5.07;4.00;;;;;;;;;;5114631;28;20518;-74
2021/06/01 02:48:09;;;;;;;6.30;3.77;;;;;;;;;;5114044;28;20951;-73
2021/06/01 02:50:36;;;;;;;4.50;3.83;;;;;;;;;;5114322;28;20445;-73
2021/06/01 02:53:03;;;;;;;5.13;3.93;;;;;;;;;;5114355;28;20446;-74
2021/06/01 02:55:30;;;;;;;5.17;3.77;;;;;;;;;;5113999;28;20432;-73
2021/06/01 02:57:57;;;;;;;3.63;3.10;;;;;;;;;;5114346;28;20435;-74
2021/06/01 03:00:27;;;;;;;6.70;3.70;;;;;;;;;;5113859;28;20446;-74
2021/06/01 03:02:54;;;;;;;5.90;3.70;;;;;;;;;;5114065;28;20524;-74
2021/06/01 03:05:21;;;;;;;5.03;3.70;;;;;;;;;;5114126;28;20521;-76
2021/06/01 03:07:50;;;;;;;3.73;3.43;;;;;;;;;;5114467;28;20502;-73
2021/06/01 03:10:17;;;;;;;3.73;3.40;;;;;;;;;;5114039;28;20584;-73
2021/06/01 03:12:48;;;;;;;3.93;3.63;;;;;;;;;;5114442;28;20442;-73
2021/06/01 03:15:15;;;;;;;4.77;3.80;;;;;;;;;;5114403;28;20462;-73
2021/06/01 03:17:43;;;;;;;4.63;4.00;;;;;;;;;;5118631;28;20525;-73
2021/06/01 03:20:11;;;;;;;6.40;4.60;;;;;;;;;;5118590;28;20486;-73
2021/06/01 03:22:37;;;;;;;4.40;3.80;;;;;;;;;;5118201;28;20481;-73
2021/06/01 03:25:05;;;;;;;4.50;3.93;;;;;;;;;;5118156;28;20445;-73
2021/06/01 03:27:31;;;;;;;5.70;4.03;;;;;;;;;;5118497;28;20469;-74
2021/06/01 03:29:58;;;;;;;7.37;4.03;;;;;;;;;;5117806;28;20442;-73
2021/06/01 03:32:25;;;;;;;5.17;3.27;;;;;;;;;;5117997;28;20452;-73
2021/06/01 03:34:53;;;;;;;7.27;4.17;;;;;;;;;;5117679;28;20578;-73
2021/06/01 03:37:20;;;;;;;5.10;3.30;;;;;;;;;;5117858;28;20541;-73
2021/06/01 03:39:47;;;;;;;5.67;3.60;;;;;;;;;;5117883;28;20936;-72
2021/06/01 03:42:13;;;;;;;4.80;4.30;;;;;;;;;;5118542;28;20569;-74
2021/06/01 03:44:41;;;;;;;8.00;4.10;;;;;;;;;;5118354;28;20457;-73
2021/06/01 03:47:08;;;;;;;6.20;3.73;;;;;;;;;;5117699;28;20849;-73
2021/06/01 03:49:35;;;;;;;4.73;3.77;;;;;;;;;;5117827;28;20441;-74
2021/06/01 03:52:06;;;;;;;10.63;4.03;;;;;;;;;;5118085;28;20449;-74
2021/06/01 03:54:33;;;;;;;4.10;3.80;;;;;;;;;;5117375;28;20430;-73
2021/06/01 03:57:00;;;;;;;4.50;4.00;;;;;;;;;;5117661;28;20431;-74
2021/06/01 03:59:27;;;;;;;4.90;3.80;;;;;;;;;;5117590;28;20465;-73
2021/06/01 04:01:54;;;;;;;6.80;4.30;;;;;;;;;;5117465;28;20477;-73
2021/06/01 04:04:20;;;;;;;5.17;4.67;;;;;;;;;;5117136;28;20445;-73
2021/06/01 04:06:47;;;;;;;4.50;4.10;;;;;;;;;;5117005;28;20434;-73
2021/06/01 04:09:16;;;;;;;6.27;4.60;;;;;;;;;;5117380;28;20530;-74
2021/06/01 04:11:43;;;;;;;6.37;4.10;;;;;;;;;;5117362;28;20473;-73
2021/06/01 04:14:09;;;;;;;4.40;3.70;;;;;;;;;;5117287;28;20835;-74
2021/06/01 04:16:36;;;;;;;7.43;4.50;;;;;;;;;;5117190;28;20426;-73
2021/06/01 04:19:03;;;;;;;6.13;4.10;;;;;;;;;;5117552;28;20524;-73
2021/06/01 04:21:29;;;;;;;6.73;3.97;;;;;;;;;;5116925;28;20564;-73
2021/06/01 04:23:56;;;;;;;7.13;3.83;;;;;;;;;;5117218;28;20516;-74
2021/06/01 04:26:27;;;;;;;3.80;3.47;;;;;;;;;;5116752;28;20558;-74
2021/06/01 04:28:53;;;;;;;4.63;4.13;;;;;;;;;;5117395;28;20857;-75
2021/06/01 04:31:20;;;;;;;11.57;4.87;;;;;;;;;;5117028;28;20495;-74
2021/06/01 04:33:47;;;;;;;5.50;4.23;;;;;;;;;;5120307;27;20454;-74
2021/06/01 04:36:14;;;;;;;5.60;4.10;;;;;;;;;;5124453;27;20445;-75
2021/06/01 04:38:40;;;;;;;5.00;4.50;;;;;;;;;;5117026;28;20450;-73
2021/06/01 04:41:07;;;;;;;6.53;4.50;;;;;;;;;;5117161;28;20991;-73
2021/06/01 04:43:35;;;;;;;4.80;4.27;;;;;;;;;;5116907;28;20434;-73
2021/06/01 04:46:02;;;;;;;5.50;4.40;;;;;;;;;;5117008;28;20438;-73
2021/06/01 04:48:29;;;;;;;6.27;5.07;;;;;;;;;;5116598;28;20489;-73
2021/06/01 04:50:55;;;;;;;6.63;4.40;;;;;;;;;;5116193;28;20487;-73
2021/06/01 04:53:22;;;;;;;5.10;4.70;;;;;;;;;;5116508;28;20562;-73
2021/06/01 04:55:49;;;;;;;5.73;4.27;;;;;;;;;;5116114;28;21001;-74
2021/06/01 04:58:15;;;;;;;5.00;4.50;;;;;;;;;;5116370;28;20457;-74
2021/06/01 05:00:43;;;;;;;5.53;4.43;;;;;;;;;;5116357;28;20542;-74
2021/06/01 05:03:10;;;;;;;4.63;3.93;;;;;;;;;;5115805;28;20478;-74
2021/06/01 05:05:37;;;;;;;6.73;4.80;;;;;;;;;;5116151;28;20442;-74
2021/06/01 05:08:04;;;;;;;5.17;4.67;;;;;;;;;;5116525;28;20453;-74
2021/06/01 05:10:30;;;;;;;6.83;4.40;;;;;;;;;;5116297;28;20446;-74
2021/06/01 05:12:57;;;;;;;9.30;5.60;;;;;;;;;;5116367;28;20442;-74
2021/06/01 05:15:24;;;;;;;8.03;4.80;;;;;;;;;;5115739;28;20441;-75
2021/06/01 05:17:52;;;;;;;8.70;5.50;;;;;;;;;;5115754;28;20471;-75
2021/06/01 05:20:19;;;;;;;10.17;5.00;;;;;;;;;;5116507;28;20441;-74
2021/06/01 05:22:46;;;;;;;8.27;5.23;;;;;;;;;;5115940;28;20472;-74
2021/06/01 05:25:13;;;;;;;7.10;5.30;;;;;;;;;;5115566;28;20451;-74
2021/06/01 05:27:40;;;;;;;5.90;4.80;;;;;;;;;;5116163;28;20494;-75
2021/06/01 05:30:08;;;;;;;8.00;5.83;;;;;;;;;;5116378;28;20508;-75
2021/06/01 05:35:23;;;;;;;8.57;5.30;;;;;;;;;;5108217;28;20422;-74
2021/06/01 05:37:51;;;;;;;5.90;4.80;;;;;;;;;;5115421;28;20861;-74
2021/06/01 05:40:18;;;;;;;9.73;4.77;;;;;;;;;;5114879;28;20446;-74
2021/06/01 05:42:44;;;;;;;5.83;5.10;;;;;;;;;;5115813;28;20476;-75
2021/06/01 05:45:11;;;;;;;9.00;4.60;;;;;;;;;;5115521;28;20530;-74
2021/06/01 05:47:38;;;;;;;5.80;5.30;;;;;;;;;;5115140;28;20584;-74
2021/06/01 05:50:06;;;;;;;10.10;5.00;;;;;;;;;;5115703;28;20437;-75
2021/06/01 05:52:35;;;;;;;7.80;5.10;;;;;;;;;;5115007;28;20530;-74
2021/06/01 05:55:04;;;;;;;5.87;5.37;;;;;;;;;;5115822;28;20461;-75
2021/06/01 05:57:30;;;;;;;9.50;5.40;;;;;;;;;;5115438;28;20438;-74
2021/06/01 05:59:57;;;;;;;9.87;5.17;;;;;;;;;;5114810;28;20442;-75
2021/06/01 06:02:24;;;;;;;10.90;7.60;;;;;;;;;;5115342;28;20472;-74
2021/06/01 06:04:51;;;;;;;7.77;5.53;;;;;;;;;;5115005;27;20517;-75
2021/06/01 06:07:18;;;;;;;10.83;8.60;;;;;;;;;;5114740;28;20447;-74
2021/06/01 06:09:46;;;;;;;6.13;5.53;;;;;;;;;;5119845;27;20834;-74
2021/06/01 06:12:13;;;;;;;7.10;5.37;;;;;;;;;;5128454;27;20532;-74
2021/06/01 06:14:39;;;;;;;6.20;5.60;;;;;;;;;;5134932;27;20477;-75
2021/06/01 06:17:09;;;;;;;6.10;5.00;;;;;;;;;;5135432;27;20434;-75
2021/06/01 06:19:41;;;;;;;7.23;5.60;;;;;;;;;;5135754;27;20502;-75
2021/06/01 06:22:08;;;;;;;10.50;6.30;;;;;;;;;;5135951;27;20505;-75
2021/06/01 06:24:35;;;;;;;8.23;4.90;;;;;;;;;;5135227;27;20437;-75
2021/06/01 06:27:03;;;;;;;6.93;5.40;;;;;;;;;;5124841;27;20990;-75
2021/06/01 06:29:30;;;;;;;7.67;6.77;;;;;;;;;;5114190;28;20948;-74
2021/06/01 06:31:57;;;;;;;8.70;6.53;;;;;;;;;;5114454;28;20482;-74
2021/06/01 06:34:23;;;;;;;8.63;7.47;;;;;;;;;;5114295;28;20534;-73
2021/06/01 06:36:50;;;;;;;14.47;10.90;;;;;;;;;;5114239;28;20442;-74
2021/06/01 06:39:17;;;;;;;6.17;5.53;;;;;;;;;;5106571;28;20486;-76
2021/06/01 06:41:44;;;;;;;7.23;6.50;;;;;;;;;;5093808;28;20471;-74
2021/06/01 06:44:13;;;;;;;12.93;5.90;;;;;;;;;;5093605;28;21004;-74
2021/06/01 06:46:42;;;;;;;5.97;5.47;;;;;;;;;;5093513;28;20448;-74
2021/06/01 06:49:14;;;;;;;6.60;5.87;;;;;;;;;;5094312;28;20767;-74
2021/06/01 06:51:41;;;;;;;7.40;6.07;;;;;;;;;;5094535;28;20435;-73
2021/06/01 06:54:08;;;;;;;6.97;6.27;;;;;;;;;;5093453;28;20446;-73
2021/06/01 06:56:35;;;;;;;11.60;8.33;;;;;;;;;;5093920;28;20451;-74
2021/06/01 06:59:01;;;;;;;9.67;7.07;;;;;;;;;;5093362;28;20538;-74
2021/06/01 07:01:31;;;;;;;10.97;6.60;;;;;;;;;;5094314;28;20471;-75
2021/06/01 07:03:58;;;;;;;7.53;4.90;;;;;;;;;;5093964;28;20896;-76
2021/06/01 07:06:24;;;;;;;6.50;5.90;;;;;;;;;;5093800;28;20448;-75
2021/06/01 07:08:51;;;;;;;8.00;5.90;;;;;;;;;;5094070;28;20541;-76
2021/06/01 07:11:18;;;;;;;8.60;5.93;;;;;;;;;;5093379;28;20544;-75
2021/06/01 07:13:52;;;;;;;5.73;5.13;;;;;;;;;;5093524;28;20450;-73
2021/06/01 07:16:19;;;;;;;5.83;5.27;;;;;;;;;;5094107;28;20495;-73
2021/06/01 07:18:47;;;;;;;9.20;7.10;;;;;;;;;;5093650;28;20473;-75
2021/06/01 07:21:14;;;;;;;8.80;5.87;;;;;;;;;;5093209;28;20970;-74
2021/06/01 07:23:41;;;;;;;7.30;5.80;;;;;;;;;;5093579;28;20523;-75
2021/06/01 07:26:09;;;;;;;6.10;5.53;;;;;;;;;;5096182;28;20524;-74
2021/06/01 07:28:36;;;;;;;5.60;5.10;;;;;;;;;;5113617;28;20415;-73
2021/06/01 07:31:04;;;;;;;11.73;6.07;;;;;;;;;;5114241;28;20447;-73
2021/06/01 07:33:31;;;;;;;6.60;5.73;;;;;;;;;;5113717;28;20439;-73
2021/06/01 07:35:59;;;;;;;6.23;5.50;;;;;;;;;;5113496;28;20937;-73
2021/06/01 07:38:25;;;;;;;8.67;5.43;;;;;;;;;;5113347;28;20534;-73
2021/06/01 07:40:52;;;;;;;5.40;5.00;;;;;;;;;;5113392;28;20861;-74
2021/06/01 07:43:19;;;;;;;9.90;5.20;;;;;;;;;;5113504;28;20604;-73
2021/06/01 07:45:46;;;;;;;6.40;5.80;;;;;;;;;;5113328;28;20443;-73
2021/06/01 07:48:12;;;;;;;5.93;5.13;;;;;;;;;;5114167;28;20438;-73
2021/06/01 07:50:39;;;;;;;6.03;5.53;;;;;;;;;;5113498;28;20443;-73
2021/06/01 07:53:07;;;;;;;6.40;5.30;;;;;;;;;;5113548;28;20443;-75
2021/06/01 07:55:34;;;;;;;6.63;5.33;;;;;;;;;;5113719;28;20461;-74
2021/06/01 07:58:00;;;;;;;5.83;5.00;;;;;;;;;;5113587;28;20442;-74
2021/06/01 08:00:27;;;;;;;5.80;5.20;;;;;;;;;;5113138;28;20995;-74
2021/06/01 08:02:54;;;;;;;5.47;4.30;;;;;;;;;;5115377;28;20470;-74
2021/06/01 08:05:23;;;;;;;5.97;4.57;;;;;;;;;;5117240;28;20468;-74
2021/06/01 08:07:50;;;;;;;5.77;4.43;;;;;;;;;;5117881;28;20448;-73
2021/06/01 08:10:21;;;;;;;8.30;5.60;;;;;;;;;;5116977;28;20453;-73
2021/06/01 08:12:48;;;;;;;5.63;5.03;;;;;;;;;;5117718;28;20430;-74
2021/06/01 08:15:18;;;;;;;5.60;5.20;;;;;;;;;;5116949;28;20435;-74
2021/06/01 08:17:45;;;;;;;4.90;4.50;;;;;;;;;;5117073;28;20460;-74
2021/06/01 08:20:14;;;;;;;6.83;4.93;;;;;;;;;;5117329;28;20448;-74
2021/06/01 08:22:42;;;;;;;5.60;5.10;;;;;;;;;;5117178;28;20471;-74
2021/06/01 08:25:10;;;;;;;5.00;4.50;;;;;;;;;;5116942;28;20783;-74
2021/06/01 08:27:38;;;;;;;6.17;5.57;;;;;;;;;;5116847;28;20467;-74
2021/06/01 08:30:06;;;;;;;5.40;4.80;;;;;;;;;;5116958;28;20471;-73
2021/06/01 08:32:33;;;;;;;7.00;5.53;;;;;;;;;;5116746;28;20482;-75
2021/06/01 08:35:00;;;;;;;5.27;4.73;;;;;;;;;;5116852;28;20526;-75
2021/06/01 08:37:26;;;;;;;5.43;4.90;;;;;;;;;;5116813;28;20453;-74
2021/06/01 08:39:53;;;;;;;6.70;5.33;;;;;;;;;;5116995;28;20448;-73
2021/06/01 08:42:20;;;;;;;5.50;5.00;;;;;;;;;;5116117;28;20473;-76
2021/06/01 08:44:50;;;;;;;7.40;5.40;;;;;;;;;;5116314;28;20470;-70
2021/06/01 08:47:19;;;;;;;5.30;4.90;;;;;;;;;;5116827;28;20768;-72
2021/06/01 08:49:46;;;;;;;4.97;4.57;;;;;;;;;;5116194;28;20439;-71
2021/06/01 08:52:13;;;;;;;4.83;4.23;;;;;;;;;;5116058;28;20503;-70
2021/06/01 08:54:40;;;;;;;5.77;5.17;;;;;;;;;;5116401;28;20446;-72
2021/06/01 08:57:08;;;;;;;7.57;5.10;;;;;;;;;;5116343;28;20525;-71
2021/06/01 08:59:35;;;;;;;5.33;4.87;;;;;;;;;;5116648;28;20444;-72
2021/06/01 09:02:03;;;;;;;5.63;5.17;;;;;;;;;;5116452;28;20611;-72
2021/06/01 09:04:44;;;;;;;7.97;4.93;;;;;;;;;;5122974;27;20525;-72
2021/06/01 09:07:13;;;;;;;4.53;4.13;;;;;;;;;;5119291;27;20449;-73
2021/06/01 09:09:47;;;;;;;5.53;4.47;;;;;;;;;;5115906;28;20443;-72
2021/06/01 09:12:28;;;;;;;7.83;4.47;;;;;;;;;;5116421;28;20527;-73
2021/06/01 09:23:14;;;;;;;5.23;4.30;;;;;;;;;;5116020;28;20762;-71
2021/06/01 09:25:43;;;;;;;4.93;4.50;;;;;;;;;;5115655;28;20440;-73
2021/06/01 09:28:10;;;;;;;4.07;3.63;;;;;;;;;;5116411;28;20475;-72
2021/06/01 09:30:39;;;;;;;6.27;5.00;;;;;;;;;;5115260;28;20443;-72
2021/06/01 09:33:09;;;;;;;6.07;4.87;;;;;;;;;;5115432;28;20501;-72
2021/06/01 09:35:42;;;;;;;4.53;3.30;;;;;;;;;;5115220;28;20487;-72
2021/06/01 09:38:10;;;;;;;4.67;4.10;;;;;;;;;;5115025;28;20496;-72
2021/06/01 09:40:38;;;;;;;5.13;3.90;;;;;;;;;;5115321;28;20438;-72
2021/06/01 09:43:07;;;;;;;4.83;4.30;;;;;;;;;;5115013;28;20470;-72
2021/06/01 09:45:34;;;;;;;12.37;5.87;;;;;;;;;;5115292;28;20436;-73
2021/06/01 09:48:03;;;;;;;5.53;4.50;;;;;;;;;;5115567;28;20468;-72
2021/06/01 09:50:35;;;;;;;7.43;5.00;;;;;;;;;;5115153;28;20553;-71
2021/06/01 09:53:04;;;;;;;9.77;6.47;;;;;;;;;;5115799;28;20434;-72
2021/06/01 09:55:35;;;;;;;7.10;4.47;;;;;;;;;;5114937;28;20449;-71
2021/06/01 09:58:02;;;;;;;6.63;3.97;;;;;;;;;;5115164;28;20531;-71
2021/06/01 10:00:30;;;;;;;3.80;3.47;;;;;;;;;;5114782;28;20467;-72
2021/06/01 10:02:57;;;;;;;5.03;3.77;;;;;;;;;;5114974;28;20512;-72
2021/06/01 10:05:25;;;;;;;4.23;3.57;;;;;;;;;;5115273;28;20570;-72
2021/06/01 10:07:54;;;;;;;9.67;4.07;;;;;;;;;;5115284;28;20449;-72
2021/06/01 10:10:22;;;;;;;4.33;3.93;;;;;;;;;;5114568;28;20921;-72
2021/06/01 10:12:50;;;;;;;5.30;4.00;;;;;;;;;;5114626;28;20453;-72
2021/06/01 10:15:18;;;;;;;4.30;3.77;;;;;;;;;;5114491;28;20501;-72
2021/06/01 10:17:45;;;;;;;6.53;4.30;;;;;;;;;;5114731;28;20440;-72
2021/06/01 10:20:12;;;;;;;3.70;3.27;;;;;;;;;;5114748;28;20442;-71
2021/06/01 10:22:39;;;;;;;3.47;3.17;;;;;;;;;;5114948;28;20477;-72
2021/06/01 10:25:08;;;;;;;3.50;3.03;;;;;;;;;;5114139;28;20578;-72
2021/06/01 10:27:35;;;;;;;5.40;4.90;;;;;;;;;;5114629;28;20465;-71
2021/06/01 10:30:01;;;;;;;3.30;3.10;;;;;;;;;;5114220;28;20945;-71
2021/06/01 10:32:29;;;;;;;3.30;3.10;;;;;;;;;;5114553;28;20452;-72
2021/06/01 10:34:57;;;;;;;5.27;3.37;;;;;;;;;;5113957;28;20529;-72
2021/06/01 10:43:20;;;;;;;8.20;4.73;;;;;;;;;;5114567;28;20560;-72
2021/06/01 10:48:47;;;;;;;7.93;4.10;;;;;;;;;;5114305;28;20390;-72
2021/06/01 10:51:27;;;;;;;3.87;3.57;;;;;;;;;;5114536;28;20841;-72
2021/06/01 10:53:54;;;;;;;3.27;2.97;;;;;;;;;;5114283;28;20487;-72
2021/06/01 10:56:22;;;;;;;3.37;3.03;;;;;;;;;;5114182;28;20442;-73
2021/06/01 10:59:04;;;;;;;3.30;3.00;;;;;;;;;;5114153;28;20936;-73
2021/06/01 11:04:18;;;;;;;2.97;2.77;;;;;;;;;;5114263;28;20409;-73
2021/06/01 11:09:55;;;;;;;3.20;3.00;;;;;;;;;;5114508;28;20407;-72
2021/06/01 11:12:40;;;;;;;2.97;2.70;;;;;;;;;;5114794;28;20843;-72
2021/06/01 11:15:22;;;;;;;2.80;2.63;;;;;;;;;;5114387;28;20434;-73
2021/06/01 11:17:49;;;;;;;7.10;3.23;;;;;;;;;;5114093;28;20858;-72
2021/06/01 11:20:18;;;;;;;2.90;2.70;;;;;;;;;;5113905;28;20528;-72
2021/06/01 11:22:51;;;;;;;2.77;2.57;;;;;;;;;;5113765;28;20480;-72
2021/06/01 11:33:46;;;;;;;3.60;2.87;;;;;;;;;;5087366;28;20423;-72
2021/06/01 11:36:15;;;;;;;2.73;2.57;;;;;;;;;;5113379;28;20443;-71
2021/06/01 11:38:47;;;;;;;3.10;2.90;;;;;;;;;;5117131;28;20955;-72
2021/06/01 11:43:50;;;;;;;4.30;3.60;;;;;;;;;;5117389;28;20446;-73
2021/06/01 11:46:28;;;;;;;6.37;3.40;;;;;;;;;;5117771;28;20450;-72
2021/06/01 11:51:43;;;;;;;5.10;2.87;;;;;;;;;;5117229;28;20394;-72
2021/06/01 11:54:12;;;;;;;2.83;2.53;;;;;;;;;;5117545;28;20537;-72
2021/06/01 11:57:01;;;;;;;5.87;3.10;;;;;;;;;;5117048;28;21012;-72
2021/06/01 12:02:28;;;;;;;8.20;4.73;;;;;;;;;;5117176;28;20495;-72
2021/06/01 12:18:46;;;;;;;3.00;2.77;;;;;;;;;;5116935;28;20426;-72
2021/06/01 12:21:16;;;;;;;6.57;2.77;;;;;;;;;;5116768;28;20443;-72
2021/06/01 12:23:45;;;;;;;3.50;2.43;;;;;;;;;;5116653;28;20515;-73
2021/06/01 12:26:15;;;;;;;3.37;2.40;;;;;;;;;;5116592;28;20463;-72
2021/06/01 12:31:48;;;;;;;6.20;3.30;;;;;;;;;;5090141;28;20415;-72
2021/06/01 12:34:20;;;;;;;3.80;2.80;;;;;;;;;;5116147;28;20443;-72
2021/06/01 12:42:22;;;;;;;5.40;3.00;;;;;;;;;;5136861;27;20573;-73
2021/06/01 12:44:50;;;;;;;7.00;2.53;;;;;;;;;;5136615;27;20437;-72
2021/06/01 12:47:40;;;;;;;4.03;2.97;;;;;;;;;;5137285;27;20786;-72
2021/06/01 13:13:23;;;;;;;2.50;2.30;;;;;;;;;;5115831;28;20452;-71
2021/06/01 13:21:34;;;;;;;4.60;2.47;;;;;;;;;;5115896;28;20420;-72
2021/06/01 13:32:47;;;;;;;4.07;2.77;;;;;;;;;;5117215;28;20402;-77
2021/06/01 13:38:15;;;;;;;3.10;2.23;;;;;;;;;;5115489;28;20468;-77
2021/06/01 13:40:56;;;;;;;2.20;2.10;;;;;;;;;;5115497;28;20426;-75
2021/06/01 13:46:13;;;;;;;2.97;2.60;;;;;;;;;;5115046;28;20757;-76
2021/06/01 13:48:51;;;;;;;3.40;3.10;;;;;;;;;;5115599;28;20423;-78
2021/06/01 13:51:39;;;;;;;3.00;2.63;;;;;;;;;;5115093;28;20975;-77
2021/06/01 13:56:59;;;;;;;2.70;2.50;;;;;;;;;;5114964;28;20855;-77
2021/06/01 13:59:37;;;;;;;8.33;2.87;;;;;;;;;;5114819;28;20432;-75
2021/06/01 14:10:54;;;;;;;3.87;3.03;;;;;;;;;;5114751;28;20395;-76
2021/06/01 14:21:51;;;;;;;3.73;3.43;;;;;;;;;;5114357;28;20412;-77
2021/06/01 14:30:05;;;;;;;3.17;2.60;;;;;;;;;;5088072;28;20502;-78
2021/06/01 14:35:55;;;;;;;2.87;2.60;;;;;;;;;;5114963;28;20972;-76
2021/06/01 14:38:31;;;;;;;2.90;2.70;;;;;;;;;;5114709;28;20456;-77
2021/06/01 15:09:18;;;;;;;3.83;3.53;;;;;;;;;;5113852;28;20853;-75
2021/06/01 15:23:23;;;;;;;4.60;3.40;;;;;;;;;;5113643;28;20462;-75
2021/06/01 15:28:43;;;;;;;3.00;2.80;;;;;;;;;;5113462;28;20842;-75
2021/06/01 15:31:28;;;;;;;4.80;3.57;;;;;;;;;;5113340;28;20421;-75
2021/06/01 15:48:00;;;;;;;2.83;2.50;;;;;;;;;;5113453;28;20453;-75
2021/06/01 15:50:32;;;;;;;3.60;2.93;;;;;;;;;;5113323;28;20438;-76
2021/06/01 16:29:36;;;;;;;3.20;2.90;;;;;;;;;;5115329;28;20970;-78
2021/06/01 16:32:40;;;;;;;3.03;2.67;;;;;;;;;;5096352;28;20404;-78
2021/06/01 16:43:36;;;;;;;6.13;3.07;;;;;;;;;;5096045;28;20489;-75
2021/06/01 17:05:26;;;;;;;2.90;2.70;;;;;;;;;;5095616;28;20398;-77
2021/06/01 17:08:03;;;;;;;2.83;2.50;;;;;;;;;;5095505;28;20472;-74
2021/06/01 17:13:17;;;;;;;17.27;15.57;;;;;;;;;;5095702;28;20406;-76
2021/06/01 17:15:47;;;;;;;4.27;3.97;;;;;;;;;;5095519;28;20443;-76
2021/06/01 17:18:18;;;;;;;6.07;5.40;;;;;;;;;;5095551;28;20438;-76
2021/06/01 17:23:42;;;;;;;7.93;3.80;;;;;;;;;;5095142;28;20482;-76
2021/06/01 17:32:04;;;;;;;3.10;2.90;;;;;;;;;;5115787;28;20440;-77
2021/06/01 17:34:38;;;;;;;6.77;4.10;;;;;;;;;;5115119;28;20477;-77
2021/06/01 17:37:06;;;;;;;3.57;3.27;;;;;;;;;;5115237;28;20452;-77
2021/06/01 17:39:33;;;;;;;53.33;48.43;;;;;;;;;;5114810;28;20466;-76
2021/06/01 17:42:01;;;;;;;10.10;8.97;;;;;;;;;;5115174;28;20863;-77
2021/06/01 17:44:30;;;;;;;5.50;4.03;;;;;;;;;;5114812;28;20527;-77
2021/06/01 17:46:59;;;;;;;4.30;3.80;;;;;;;;;;5114939;28;20957;-77
2021/06/01 17:49:27;;;;;;;3.20;2.97;;;;;;;;;;5114778;28;20477;-77
2021/06/01 17:51:54;;;;;;;3.33;3.10;;;;;;;;;;5115042;28;20438;-77
2021/06/01 17:54:28;;;;;;;3.53;3.23;;;;;;;;;;5114637;28;20542;-77
2021/06/01 17:56:55;;;;;;;4.10;3.80;;;;;;;;;;5114576;28;20941;-76
2021/06/01 17:59:27;;;;;;;4.73;3.50;;;;;;;;;;5114884;28;20443;-76
2021/06/01 18:01:54;;;;;;;3.87;3.57;;;;;;;;;;5115075;28;20437;-77
2021/06/01 18:04:24;;;;;;;3.30;3.07;;;;;;;;;;5115606;28;20487;-75
2021/06/01 18:06:53;;;;;;;37.73;33.37;;;;;;;;;;5114970;28;20534;-73
2021/06/01 18:09:38;;;;;;;6.47;4.00;;;;;;;;;;5114312;28;20438;-73
2021/06/01 18:12:23;;;;;;;5.87;4.57;;;;;;;;;;5114201;28;20442;-72
2021/06/01 18:37:15;;;;;;;5.80;3.47;;;;;;;;;;5114047;28;20435;-81
2021/06/01 19:29:59;;;;;;;4.87;4.47;;;;;;;;;;5113989;28;20407;-83
2021/06/01 19:52:10;;;;;;;16.53;13.70;;;;;;;;;;5112337;28;20434;-79
2021/06/01 19:54:38;;;;;;;9.90;6.57;;;;;;;;;;5113132;28;20589;-81
2021/06/01 19:57:05;;;;;;;9.40;4.93;;;;;;;;;;5113572;28;20441;-81
2021/06/01 19:59:34;;;;;;;5.03;4.50;;;;;;;;;;5116983;28;20526;-80
2021/06/01 20:02:01;;;;;;;5.43;5.00;;;;;;;;;;5117082;28;20449;-80
2021/06/01 20:04:29;;;;;;;8.60;6.30;;;;;;;;;;5117074;28;20544;-79
2021/06/01 20:06:56;;;;;;;12.23;11.13;;;;;;;;;;5117532;28;20465;-80
2021/06/01 20:09:22;;;;;;;5.93;5.30;;;;;;;;;;5117361;28;20434;-80
2021/06/01 20:11:49;;;;;;;5.60;5.20;;;;;;;;;;5117215;28;20524;-81
2021/06/01 20:14:16;;;;;;;5.43;4.80;;;;;;;;;;5116885;28;20535;-80
2021/06/01 20:16:49;;;;;;;5.13;4.63;;;;;;;;;;5116806;28;20530;-80
2021/06/01 20:19:16;;;;;;;9.50;4.20;;;;;;;;;;5117717;28;20434;-81
2021/06/01 20:21:45;;;;;;;5.20;4.77;;;;;;;;;;5117359;28;20481;-82
2021/06/01 20:24:15;;;;;;;7.33;4.57;;;;;;;;;;5117066;28;20496;-81
2021/06/01 20:26:44;;;;;;;5.33;4.83;;;;;;;;;;5117575;28;20478;-80
2021/06/01 20:29:12;;;;;;;5.67;4.93;;;;;;;;;;5117057;28;20929;-80
2021/06/01 20:31:42;;;;;;;5.47;4.37;;;;;;;;;;5116663;28;20453;-80
2021/06/01 20:34:13;;;;;;;7.40;4.90;;;;;;;;;;5117230;28;20444;-80
2021/06/01 20:36:39;;;;;;;5.00;4.50;;;;;;;;;;5117178;28;20425;-81
2021/06/01 20:39:09;;;;;;;6.03;5.43;;;;;;;;;;5116920;28;20456;-80
2021/06/01 20:41:37;;;;;;;7.27;5.67;;;;;;;;;;5116480;28;20482;-80
2021/06/01 20:44:04;;;;;;;15.40;12.07;;;;;;;;;;5116260;28;20479;-79
2021/06/01 20:46:32;;;;;;;7.60;5.33;;;;;;;;;;5116691;28;20480;-81
2021/06/01 20:48:59;;;;;;;5.17;4.73;;;;;;;;;;5117166;28;20450;-81
2021/06/01 20:51:27;;;;;;;6.07;4.87;;;;;;;;;;5116304;28;20531;-79
2021/06/01 20:53:57;;;;;;;5.30;4.80;;;;;;;;;;5116579;28;20798;-82
2021/06/01 20:56:25;;;;;;;6.47;4.83;;;;;;;;;;5116498;28;20526;-82
2021/06/01 20:58:53;;;;;;;11.47;6.97;;;;;;;;;;5117187;28;20520;-81
2021/06/01 21:01:20;;;;;;;6.80;4.80;;;;;;;;;;5116468;28;20559;-81